createdAt,value
2019-04-18T00:09:20.463Z,23.5
2019-04-18T00:19:19.761Z,23.6
2019-04-18T00:29:19.055Z,23.5
2019-04-18T00:39:18.348Z,23.5
2019-04-18T00:49:17.647Z,23.5
2019-04-18T00:59:16.865Z,23.4
2019-04-18T01:09:16.078Z,23.4
2019-04-18T01:19:16.823Z,23.4
2019-04-18T01:29:14.501Z,23.4
2019-04-18T01:39:15.248Z,23.4
2019-04-18T01:46:23.179Z,23.4
2019-04-18T01:56:23.836Z,23.4
2019-04-18T02:06:20.401Z,23.4
2019-04-18T02:16:19.611Z,23.4
2019-04-18T02:26:18.820Z,23.4
2019-04-18T02:36:18.042Z,23.4
2019-04-18T02:46:17.305Z,23.3
2019-04-18T02:56:16.597Z,23.3
2019-04-18T03:06:16.176Z,23.3
2019-04-18T03:16:15.189Z,23.2
2019-04-18T03:26:14.487Z,23.2
2019-04-18T03:36:13.792Z,23.1
2019-04-18T03:46:13.004Z,23.1
2019-04-18T03:56:12.238Z,23.1
2019-04-18T04:06:17.259Z,23.1
2019-04-18T04:16:10.645Z,23.1
2019-04-18T04:26:09.859Z,23.1
2019-04-18T04:36:21.832Z,23
2019-04-18T04:46:08.916Z,23
2019-04-18T04:56:07.501Z,22.9
2019-04-18T05:06:06.707Z,22.9
2019-04-18T05:16:05.928Z,22.9
2019-04-18T05:26:05.144Z,22.9
2019-04-18T05:36:04.349Z,22.9
2019-04-18T05:46:03.568Z,22.9
2019-04-18T05:56:02.780Z,22.9
2019-04-18T06:05:53.067Z,22.9
2019-04-18T06:15:56.409Z,22.9
2019-04-18T06:25:52.202Z,23.1
2019-04-18T06:35:50.846Z,23.2
2019-04-18T06:45:49.911Z,23.3
2019-04-18T06:55:49.129Z,23.4
2019-04-18T07:05:48.385Z,23.6
2019-04-18T07:15:47.677Z,23.9
2019-04-18T07:25:46.982Z,24.1
2019-04-18T07:35:46.274Z,24.3
2019-04-18T07:45:45.612Z,24.3
2019-04-18T07:55:44.864Z,24.4
2019-04-18T08:05:44.082Z,24.3
2019-04-18T08:15:43.294Z,24.3
2019-04-18T08:25:45.591Z,24.2
2019-04-18T08:35:41.719Z,24.2
2019-04-18T08:45:40.928Z,24.1
2019-04-18T08:55:40.134Z,24.1
2019-04-18T09:05:39.749Z,24.1
2019-04-18T09:15:39.442Z,24.1
2019-04-18T09:25:38.639Z,23.9
2019-04-18T09:35:45.096Z,23.8
2019-04-18T09:45:36.471Z,23.8
2019-04-18T09:55:35.410Z,23.8
2019-04-18T10:05:34.622Z,23.7
2019-04-18T10:15:33.832Z,23.7
2019-04-18T10:25:36.138Z,23.8
2019-04-18T10:35:32.262Z,23.7
2019-04-18T10:45:33.967Z,23.8
2019-04-18T10:55:30.689Z,23.8
2019-04-18T11:05:31.540Z,23.8
2019-04-18T11:15:29.148Z,23.8
2019-04-18T11:25:28.329Z,23.9
2019-04-18T11:35:27.538Z,23.8
2019-04-18T11:45:26.747Z,23.8
2019-04-18T11:55:25.958Z,23.8
2019-04-18T12:05:25.179Z,23.8
2019-04-18T12:15:24.383Z,23.8
2019-04-18T12:25:23.592Z,23.8
2019-04-18T12:35:29.070Z,23.7
2019-04-18T12:45:22.016Z,23.6
2019-04-18T12:55:21.227Z,23.6
2019-04-18T13:05:20.438Z,23.6
2019-04-18T13:15:19.651Z,23.6
2019-04-18T13:25:18.861Z,23.6
2019-04-18T13:35:18.079Z,23.5
2019-04-18T13:45:17.298Z,23.5
2019-04-18T13:55:16.503Z,23.5
2019-04-18T14:05:15.712Z,23.4
2019-04-18T14:15:14.922Z,23.4
2019-04-18T14:25:14.130Z,23.4
2019-04-18T14:35:13.337Z,23.4
2019-04-18T14:45:13.119Z,23.4
2019-04-18T14:55:11.764Z,23.4
2019-04-18T15:05:10.975Z,23.3
2019-04-18T15:15:10.181Z,23.3
2019-04-18T15:25:09.390Z,23.3
2019-04-18T15:35:09.039Z,23.3
2019-04-18T15:45:07.820Z,23.3
2019-04-18T15:50:35.974Z,23.3
2019-04-18T16:00:35.193Z,23.3
2019-04-18T16:10:34.395Z,23.2
2019-04-18T16:20:33.604Z,23.2
2019-04-18T16:33:56.941Z,23.8
2019-04-18T16:43:56.153Z,23.6
2019-04-18T16:53:55.359Z,23.4
2019-04-18T17:03:54.570Z,23.4
2019-04-18T17:13:53.786Z,23.3
2019-04-18T17:23:53.003Z,23.3
2019-04-18T17:34:06.098Z,23.3
2019-04-18T17:43:57.487Z,23.3
2019-04-18T17:54:07.761Z,23.1
2019-04-18T18:03:55.510Z,23.1
2019-04-18T18:13:57.440Z,23.1
2019-04-18T18:23:53.356Z,23.1
2019-04-18T18:37:06.756Z,23.1
2019-04-18T18:47:05.480Z,23
2019-04-18T18:57:10.083Z,23
2019-04-18T19:07:03.876Z,23.1
2019-04-18T19:17:10.667Z,23.1
2019-04-18T19:27:09.766Z,23.1
2019-04-18T19:37:12.946Z,23.2
2019-04-18T19:47:01.829Z,23.2
2019-04-18T19:57:00.201Z,23.2
2019-04-18T20:07:13.561Z,23.2
2019-04-18T20:17:00.113Z,23.2
2019-04-18T20:26:58.066Z,23.2
2019-04-18T20:37:08.870Z,23.2
2019-04-18T20:47:09.300Z,23.2
2019-04-18T20:56:55.798Z,23.2
2019-04-18T21:07:06.344Z,23.2
2019-04-18T21:16:55.178Z,23.2
2019-04-18T21:26:56.863Z,23.2
2019-04-18T21:37:10.412Z,23.2
2019-04-18T21:46:55.329Z,23.2
2019-04-18T21:56:53.371Z,23.3
2019-04-18T22:06:52.749Z,23.3
2019-04-18T22:16:49.480Z,23.3
2019-04-18T22:26:48.784Z,23.3
2019-04-18T22:36:50.594Z,23.3
2019-04-18T22:46:47.033Z,23.2
2019-04-18T22:56:51.081Z,23.2
2019-04-18T23:06:45.974Z,23.2
2019-04-18T23:16:51.405Z,23.2
2019-04-18T23:26:48.496Z,23.2
2019-04-18T23:36:47.555Z,23.2
2019-04-18T23:46:42.302Z,23.2
2019-04-18T23:56:45.995Z,23.2
